createdAt,value
2023-04-01T00:01:05.361Z,8.23
2023-04-01T00:03:37.227Z,6.97
2023-04-01T00:06:09.183Z,9.23
2023-04-01T00:08:41.628Z,8.32
2023-04-01T00:11:14.834Z,9.18
2023-04-01T00:13:47.439Z,8.27
2023-04-01T00:16:21.760Z,8.55
2023-04-01T00:18:54.723Z,8.23
2023-04-01T00:21:25.748Z,9.32
2023-04-01T00:23:57.610Z,8.50
2023-04-01T00:26:29.509Z,8.60
2023-04-01T00:29:03.016Z,8.77
2023-04-01T00:31:34.689Z,8.00
2023-04-01T00:34:07.076Z,9.02
2023-04-01T00:36:38.759Z,8.55
2023-04-01T00:39:10.734Z,10.07
2023-04-01T00:41:43.642Z,9.20
2023-04-01T00:44:25.662Z,8.18
2023-04-01T00:46:56.803Z,9.68
2023-04-01T00:49:35.192Z,10.20
2023-04-01T00:52:10.220Z,10.07
2023-04-01T00:54:48.056Z,11.00
2023-04-01T00:57:40.717Z,9.20
2023-04-01T01:00:16.208Z,9.45
2023-04-01T01:02:49.933Z,8.55
2023-04-01T01:05:28.026Z,9.18
2023-04-01T01:08:13.057Z,9.35
2023-04-01T01:10:50.318Z,10.50
2023-04-01T01:13:48.443Z,9.80
2023-04-01T01:16:32.361Z,10.55
2023-04-01T01:19:13.210Z,9.27
2023-04-01T01:21:59.961Z,10.45
2023-04-01T01:24:38.884Z,9.27
2023-04-01T01:27:14.441Z,11.07
2023-04-01T01:30:17.558Z,9.25
2023-04-01T01:32:59.885Z,10.60
2023-04-01T01:35:40.920Z,10.45
2023-04-01T01:38:19.349Z,10.88
2023-04-01T01:40:55.770Z,9.40
2023-04-01T01:43:32.734Z,9.77
2023-04-01T01:46:10.699Z,10.32
2023-04-01T01:48:46.540Z,10.65
2023-04-01T01:51:18.299Z,11.23
2023-04-01T01:53:50.378Z,9.63
2023-04-01T01:56:29.676Z,11.25
2023-04-01T01:59:10.099Z,10.48
2023-04-01T02:01:46.556Z,10.20
2023-04-01T02:04:21.374Z,11.27
2023-04-01T02:07:02.148Z,10.32
2023-04-01T02:09:36.425Z,9.90
2023-04-01T02:12:12.140Z,10.60
2023-04-01T02:15:12.561Z,10.13
2023-04-01T02:17:54.859Z,10.10
2023-04-01T02:20:30.679Z,10.07
2023-04-01T02:23:02.801Z,11.07
2023-04-01T02:25:38.817Z,10.35
2023-04-01T02:28:11.149Z,10.20
2023-04-01T02:30:45.370Z,9.43
2023-04-01T02:33:16.262Z,10.77
2023-04-01T02:35:47.445Z,10.98
2023-04-01T02:38:18.839Z,10.02
2023-04-01T02:40:54.137Z,12.23
2023-04-01T02:43:26.274Z,8.98
2023-04-01T02:45:57.719Z,10.68
2023-04-01T02:48:28.996Z,10.55
2023-04-01T02:51:00.525Z,11.52
2023-04-01T02:53:33.102Z,10.07
2023-04-01T02:56:04.035Z,10.07
2023-04-01T02:58:37.634Z,9.55
2023-04-01T03:01:09.939Z,9.52
2023-04-01T03:06:14.319Z,10.23
2023-04-01T03:08:45.973Z,9.43
2023-04-01T03:11:17.149Z,10.38
2023-04-01T03:13:49.039Z,10.60
2023-04-01T03:16:20.237Z,8.80
2023-04-01T03:18:56.487Z,10.07
2023-04-01T03:21:27.267Z,10.23
2023-04-01T03:23:57.560Z,10.07
2023-04-01T03:26:29.982Z,10.30
2023-04-01T03:29:02.098Z,10.15
2023-04-01T03:31:33.704Z,9.75
2023-04-01T03:34:06.096Z,10.35
2023-04-01T03:36:36.545Z,9.68
2023-04-01T03:39:08.464Z,8.63
2023-04-01T03:41:41.692Z,9.57
2023-04-01T03:44:14.386Z,9.63
2023-04-01T03:46:47.098Z,10.35
2023-04-01T03:49:19.550Z,10.80
2023-04-01T03:51:51.556Z,9.52
2023-04-01T03:54:24.556Z,9.40
2023-04-01T03:56:57.200Z,9.73
2023-04-01T04:01:59.514Z,10.15
2023-04-01T04:04:32.577Z,8.40
2023-04-01T04:07:05.001Z,8.60
2023-04-01T04:09:38.796Z,9.77
2023-04-01T04:12:10.481Z,11.45
2023-04-01T04:14:42.624Z,8.55
2023-04-01T04:17:17.883Z,9.30
2023-04-01T04:19:50.265Z,10.20
2023-04-01T04:22:22.165Z,9.13
2023-04-01T04:24:54.781Z,9.13
2023-04-01T04:27:26.313Z,8.73
2023-04-01T04:29:59.729Z,10.10
2023-04-01T04:35:03.582Z,9.25
2023-04-01T04:37:35.196Z,9.45
2023-04-01T04:40:07.323Z,8.60
2023-04-01T04:45:11.445Z,8.25
2023-04-01T04:47:44.736Z,7.65
2023-04-01T04:50:19.292Z,9.93
2023-04-01T04:52:50.666Z,8.43
2023-04-01T04:55:23.024Z,10.38
2023-04-01T04:57:54.331Z,9.38
2023-04-01T05:00:27.081Z,9.45
2023-04-01T05:02:59.078Z,8.77
2023-04-01T05:05:31.492Z,9.57
2023-04-01T05:08:04.180Z,10.48
2023-04-01T05:10:36.361Z,9.52
2023-04-01T05:13:07.586Z,8.23
2023-04-01T05:15:40.236Z,8.18
2023-04-01T05:20:53.584Z,8.88
2023-04-01T05:23:26.363Z,8.35
2023-04-01T05:25:59.677Z,5.55
2023-04-01T05:28:31.385Z,6.47
2023-04-01T05:31:05.644Z,8.60
2023-04-01T05:33:38.911Z,7.25
2023-04-01T05:36:14.100Z,7.00
2023-04-01T05:38:48.192Z,8.35
2023-04-01T05:41:21.338Z,6.50
2023-04-01T05:43:53.650Z,7.15
2023-04-01T05:46:28.407Z,7.87
2023-04-01T05:49:01.339Z,7.30
2023-04-01T05:51:34.532Z,8.60
2023-04-01T05:54:08.696Z,7.85
2023-04-01T05:56:41.308Z,5.72
2023-04-01T05:59:14.154Z,5.17
2023-04-01T06:01:46.417Z,5.43
2023-04-01T06:04:20.779Z,6.78
2023-04-01T06:06:53.786Z,6.28
2023-04-01T06:09:32.495Z,5.82
2023-04-01T06:12:32.024Z,6.03
2023-04-01T06:15:14.572Z,6.00
2023-04-01T06:18:20.806Z,3.15
2023-04-01T06:21:25.104Z,5.35
2023-04-01T06:24:26.921Z,5.30
2023-04-01T06:27:15.537Z,5.32
2023-04-01T06:29:58.711Z,5.87
2023-04-01T06:35:34.056Z,5.28
2023-04-01T06:38:33.692Z,2.78
2023-04-01T06:41:12.472Z,4.07
2023-04-01T06:44:01.658Z,6.10
2023-04-01T06:47:05.596Z,3.83
2023-04-01T06:50:04.583Z,2.35
2023-04-01T06:53:18.626Z,2.28
2023-04-01T06:56:12.153Z,5.00
2023-04-01T06:58:51.926Z,4.35
2023-04-01T07:01:44.981Z,4.32
2023-04-01T07:04:23.036Z,4.20
2023-04-01T07:06:59.126Z,4.47
2023-04-01T07:09:43.181Z,4.37
2023-04-01T07:12:42.985Z,4.62
2023-04-01T07:15:23.607Z,2.47
2023-04-01T07:18:11.880Z,3.90
2023-04-01T07:20:43.164Z,3.00
2023-04-01T07:23:30.210Z,3.55
2023-04-01T07:26:22.724Z,1.65
2023-04-01T07:28:59.174Z,2.95
2023-04-01T07:31:53.212Z,2.65
2023-04-01T07:34:29.958Z,3.33
2023-04-01T07:37:16.202Z,3.12
2023-04-01T07:40:17.248Z,2.53
2023-04-01T07:43:04.461Z,3.47
2023-04-01T07:45:49.395Z,3.03
2023-04-01T07:48:39.404Z,3.97
2023-04-01T07:51:39.818Z,3.20
2023-04-01T07:54:19.392Z,3.20
2023-04-01T07:57:10.725Z,2.78
2023-04-01T07:59:59.482Z,2.37
2023-04-01T08:02:51.215Z,3.25
2023-04-01T08:05:31.747Z,2.95
2023-04-01T08:08:14.269Z,2.30
2023-04-01T08:10:59.535Z,3.30
2023-04-01T08:14:04.146Z,3.45
2023-04-01T08:17:00.173Z,2.65
2023-04-01T08:19:42.028Z,3.13
2023-04-01T08:22:22.547Z,1.37
2023-04-01T08:24:57.112Z,3.67
2023-04-01T08:27:37.880Z,3.58
2023-04-01T08:30:23.128Z,4.93
2023-04-01T08:33:01.568Z,2.47
2023-04-01T08:35:58.531Z,2.97
2023-04-01T08:38:39.446Z,4.45
2023-04-01T08:41:44.685Z,3.67
2023-04-01T08:45:01.970Z,2.72
2023-04-01T08:47:52.236Z,3.03
2023-04-01T08:50:58.836Z,4.35
2023-04-01T08:53:57.040Z,4.20
2023-04-01T08:56:37.635Z,2.12
2023-04-01T08:59:47.057Z,3.35
2023-04-01T09:02:43.038Z,5.37
2023-04-01T09:05:39.058Z,3.33
2023-04-01T09:08:43.052Z,3.20
2023-04-01T09:14:15.021Z,2.62
2023-04-01T09:17:25.308Z,4.07
2023-04-01T09:20:35.242Z,2.75
2023-04-01T09:23:18.811Z,3.65
2023-04-01T09:25:57.401Z,3.95
2023-04-01T09:28:57.351Z,4.00
2023-04-01T09:32:01.943Z,2.55
2023-04-01T09:34:54.541Z,3.65
2023-04-01T09:37:54.467Z,4.03
2023-04-01T09:40:54.456Z,3.72
2023-04-01T09:43:35.035Z,3.75
2023-04-01T09:46:22.416Z,3.42
2023-04-01T09:49:32.776Z,3.85
2023-04-01T09:52:22.685Z,4.07
2023-04-01T09:54:58.050Z,4.10
2023-04-01T09:58:07.616Z,4.72
2023-04-01T10:01:09.660Z,4.45
2023-04-01T10:03:41.182Z,2.95
2023-04-01T10:06:50.214Z,2.83
2023-04-01T10:09:44.818Z,4.32
2023-04-01T10:12:55.196Z,2.70
2023-04-01T10:16:05.009Z,2.72
2023-04-01T10:19:02.968Z,4.37
2023-04-01T10:22:14.420Z,4.18
2023-04-01T10:25:07.046Z,4.35
2023-04-01T10:28:06.059Z,5.47
2023-04-01T10:31:05.307Z,3.78
2023-04-01T10:34:15.644Z,4.00
2023-04-01T10:36:55.237Z,3.80
2023-04-01T10:40:05.618Z,4.22
2023-04-01T10:43:17.437Z,4.70
2023-04-01T10:46:27.089Z,3.40
2023-04-01T10:49:16.079Z,2.17
2023-04-01T10:52:21.598Z,3.35
2023-04-01T10:55:34.667Z,3.78
2023-04-01T10:58:09.010Z,3.78
2023-04-01T11:01:26.119Z,3.20
2023-04-01T11:07:43.224Z,4.15
2023-04-01T11:10:51.851Z,4.97
2023-04-01T11:13:50.619Z,3.45
2023-04-01T11:17:00.740Z,3.60
2023-04-01T11:20:10.368Z,3.80
2023-04-01T11:23:20.376Z,3.65
2023-04-01T11:26:11.240Z,5.90
2023-04-01T11:29:12.844Z,4.32
2023-04-01T11:32:06.426Z,3.58
2023-04-01T11:34:50.047Z,3.70
2023-04-01T11:37:27.792Z,3.80
2023-04-01T11:40:15.196Z,3.83
2023-04-01T11:43:19.883Z,5.75
2023-04-01T11:46:33.858Z,4.10
2023-04-01T11:49:37.663Z,4.85
2023-04-01T11:52:38.668Z,4.80
2023-04-01T11:55:26.626Z,4.15
2023-04-01T11:58:20.812Z,5.72
2023-04-01T12:01:21.784Z,4.65
2023-04-01T12:04:30.951Z,4.35
2023-04-01T12:07:36.180Z,3.62
2023-04-01T12:10:26.224Z,4.32
2023-04-01T12:13:35.545Z,3.47
2023-04-01T12:16:15.946Z,3.58
2023-04-01T12:19:02.604Z,4.00
2023-04-01T12:21:53.531Z,3.53
2023-04-01T12:24:49.975Z,2.42
2023-04-01T12:27:41.590Z,2.62
2023-04-01T12:30:38.714Z,3.75
2023-04-01T12:33:45.591Z,2.53
2023-04-01T12:36:52.775Z,2.78
2023-04-01T12:39:41.254Z,2.70
2023-04-01T12:42:26.492Z,3.00
2023-04-01T12:45:17.447Z,2.83
2023-04-01T12:48:08.308Z,2.15
2023-04-01T12:51:07.230Z,2.37
2023-04-01T12:53:51.496Z,2.65
2023-04-01T12:56:50.801Z,2.80
2023-04-01T12:59:25.409Z,3.55
2023-04-01T13:02:23.662Z,3.17
2023-04-01T13:05:02.731Z,3.00
2023-04-01T13:10:46.580Z,2.42
2023-04-01T13:13:19.733Z,4.12
2023-04-01T13:16:17.847Z,3.80
2023-04-01T13:19:10.750Z,3.40
2023-04-01T13:22:19.674Z,5.37
2023-04-01T13:24:59.800Z,4.20
2023-04-01T13:37:18.911Z,4.53
2023-04-01T13:40:26.574Z,4.10
2023-04-01T13:43:09.576Z,3.80
2023-04-01T13:46:09.064Z,3.78
2023-04-01T13:48:56.413Z,3.90
2023-04-01T13:51:46.725Z,4.40
2023-04-01T13:54:32.553Z,5.00
2023-04-01T13:57:35.292Z,5.00
2023-04-01T14:00:41.489Z,6.18
2023-04-01T14:03:48.310Z,5.45
2023-04-01T14:06:31.671Z,4.87
2023-04-01T14:09:18.333Z,5.15
2023-04-01T14:12:04.936Z,5.72
2023-04-01T14:14:57.262Z,3.70
2023-04-01T14:17:31.243Z,5.82
2023-04-01T14:20:23.434Z,6.47
2023-04-01T14:23:10.780Z,4.65
2023-04-01T14:25:47.189Z,5.80
2023-04-01T14:28:18.531Z,5.32
2023-04-01T14:31:15.726Z,6.35
2023-04-01T14:34:01.625Z,6.53
2023-04-01T14:36:48.233Z,5.65
2023-04-01T14:39:32.106Z,5.53
2023-04-01T14:44:55.894Z,6.75
2023-04-01T14:47:44.213Z,7.00
2023-04-01T14:50:18.159Z,9.13
2023-04-01T14:53:13.443Z,5.10
2023-04-01T14:55:51.993Z,7.05
2023-04-01T14:58:23.087Z,6.37
2023-04-01T15:01:29.449Z,6.00
2023-04-01T15:04:24.355Z,7.15
2023-04-01T15:07:30.798Z,6.53
2023-04-01T15:10:30.775Z,5.68
2023-04-01T15:13:36.880Z,6.43
2023-04-01T15:16:32.218Z,6.47
2023-04-01T15:19:30.163Z,5.90
2023-04-01T15:22:24.433Z,4.65
2023-04-01T15:25:24.189Z,6.03
2023-04-01T15:28:08.955Z,5.50
2023-04-01T15:31:06.900Z,6.00
2023-04-01T15:33:52.427Z,6.62
2023-04-01T15:36:43.559Z,6.62
2023-04-01T15:39:19.444Z,5.68
2023-04-01T15:42:26.033Z,5.18
2023-04-01T15:45:05.951Z,5.28
2023-04-01T15:47:59.331Z,5.00
2023-04-01T15:50:52.358Z,6.22
2023-04-01T15:53:37.834Z,5.53
2023-04-01T15:56:44.802Z,4.53
2023-04-01T15:59:33.365Z,4.72
2023-04-01T16:02:30.113Z,5.80
2023-04-01T16:05:31.933Z,5.35
2023-04-01T16:08:39.043Z,5.72
2023-04-01T16:11:22.774Z,4.87
2023-04-01T16:14:14.271Z,5.37
2023-04-01T16:17:20.909Z,4.18
2023-04-01T16:19:53.736Z,11.57
2023-04-01T16:22:33.010Z,5.95
2023-04-01T16:25:35.778Z,7.20
2023-04-01T16:28:24.906Z,6.22
2023-04-01T16:31:09.779Z,6.30
2023-04-01T16:33:52.625Z,5.87
2023-04-01T16:36:31.317Z,5.90
2023-04-01T16:39:41.340Z,5.43
2023-04-01T16:42:40.963Z,4.78
2023-04-01T16:45:38.193Z,6.07
2023-04-01T16:48:14.523Z,4.40
2023-04-01T16:51:05.249Z,5.12
2023-04-01T16:53:44.057Z,6.85
2023-04-01T16:56:37.405Z,6.80
2023-04-01T16:59:17.330Z,6.72
2023-04-01T17:01:51.893Z,5.57
2023-04-01T17:04:38.135Z,4.80
2023-04-01T17:07:36.631Z,4.43
2023-04-01T17:10:30.555Z,6.10
2023-04-01T17:13:30.728Z,4.85
2023-04-01T17:16:30.804Z,3.60
2023-04-01T17:19:25.588Z,6.43
2023-04-01T17:22:32.321Z,5.10
2023-04-01T17:25:39.628Z,3.83
2023-04-01T17:28:37.081Z,5.55
2023-04-01T17:31:23.037Z,5.15
2023-04-01T17:34:18.473Z,10.70
2023-04-01T17:37:01.819Z,9.25
2023-04-01T17:39:49.927Z,7.75
2023-04-01T17:42:40.558Z,5.37
2023-04-01T17:45:37.337Z,6.35
2023-04-01T17:48:44.641Z,6.55
2023-04-01T17:51:30.933Z,5.95
2023-04-01T17:54:38.329Z,6.82
2023-04-01T17:57:43.514Z,6.47
2023-04-01T18:00:30.090Z,6.07
2023-04-01T18:03:33.263Z,3.95
2023-04-01T18:06:39.989Z,5.65
2023-04-01T18:09:40.331Z,5.37
2023-04-01T18:12:47.469Z,6.62
2023-04-01T18:15:40.892Z,6.93
2023-04-01T18:18:37.334Z,2.90
2023-04-01T18:21:31.775Z,5.18
2023-04-01T18:24:15.560Z,5.53
2023-04-01T18:26:52.423Z,4.55
2023-04-01T18:29:37.512Z,4.45
2023-04-01T18:32:25.479Z,4.12
2023-04-01T18:35:04.270Z,8.60
2023-04-01T18:40:56.911Z,6.10
2023-04-01T18:43:39.254Z,5.95
2023-04-01T18:46:47.633Z,7.53
2023-04-01T18:49:46.020Z,9.00
2023-04-01T18:52:21.353Z,7.35
2023-04-01T18:55:24.016Z,6.30
2023-04-01T18:57:57.975Z,9.32
2023-04-01T19:00:44.577Z,8.30
2023-04-01T19:03:33.321Z,6.80
2023-04-01T19:06:13.987Z,8.38
2023-04-01T19:08:42.812Z,8.13
2023-04-01T19:11:43.339Z,9.52
2023-04-01T19:14:27.990Z,8.75
2023-04-01T19:17:26.076Z,7.80
2023-04-01T19:20:16.464Z,7.78
2023-04-01T19:23:17.650Z,8.93
2023-04-01T19:25:57.224Z,8.32
2023-04-01T19:28:28.651Z,8.13
2023-04-01T19:31:19.289Z,8.88
2023-04-01T19:33:50.372Z,7.35
2023-04-01T19:39:52.508Z,8.02
2023-04-01T19:42:38.894Z,7.97
2023-04-01T19:45:26.584Z,8.57
2023-04-01T19:48:24.699Z,8.70
2023-04-01T19:50:56.329Z,8.77
2023-04-01T19:53:53.830Z,8.80
2023-04-01T19:56:24.652Z,8.90
2023-04-01T19:58:58.451Z,7.78
2023-04-01T20:01:46.625Z,10.18
2023-04-01T20:04:22.518Z,8.88
2023-04-01T20:06:50.214Z,9.48
2023-04-01T20:09:36.710Z,8.90
2023-04-01T20:12:16.669Z,9.40
2023-04-01T20:14:54.522Z,8.38
2023-04-01T20:17:47.525Z,10.18
2023-04-01T20:20:26.201Z,9.13
2023-04-01T20:23:12.650Z,9.38
2023-04-01T20:26:02.658Z,9.57
2023-04-01T20:28:48.475Z,9.60
2023-04-01T20:31:26.299Z,11.80
2023-04-01T20:34:12.514Z,9.85
2023-04-01T20:37:03.124Z,10.10
2023-04-01T20:39:45.983Z,10.23
2023-04-01T20:44:53.338Z,9.75
2023-04-01T20:47:49.669Z,9.90
2023-04-01T20:50:36.618Z,9.20
2023-04-01T20:53:13.666Z,10.50
2023-04-01T20:56:11.973Z,11.32
2023-04-01T20:59:11.908Z,10.93
2023-04-01T21:01:52.467Z,10.40
2023-04-01T21:04:27.548Z,10.75
2023-04-01T21:07:08.432Z,9.63
2023-04-01T21:09:57.757Z,11.75
2023-04-01T21:12:25.944Z,10.10
2023-04-01T21:15:18.646Z,9.55
2023-04-01T21:18:10.881Z,9.35
2023-04-01T21:21:09.284Z,9.65
2023-04-01T21:23:59.503Z,9.80
2023-04-01T21:27:03.351Z,9.07
2023-04-01T21:29:55.042Z,9.77
2023-04-01T21:33:11.565Z,10.02
2023-04-01T21:35:58.170Z,9.55
2023-04-01T21:38:48.286Z,9.45
2023-04-01T21:41:45.228Z,9.02
2023-04-01T21:44:28.279Z,8.73
2023-04-01T21:47:25.247Z,9.13
2023-04-01T21:50:09.822Z,8.63
2023-04-01T21:53:05.278Z,9.20
2023-04-01T21:56:11.510Z,9.50
2023-04-01T21:59:18.934Z,10.05
2023-04-01T22:02:01.979Z,9.45
2023-04-01T22:04:36.253Z,7.68
2023-04-01T22:07:32.465Z,9.10
2023-04-01T22:10:00.593Z,6.93
2023-04-01T22:12:46.859Z,7.32
2023-04-01T22:15:30.789Z,8.90
2023-04-01T22:18:24.006Z,7.62
2023-04-01T22:21:06.426Z,9.35
2023-04-01T22:23:55.859Z,8.98
2023-04-01T22:26:34.426Z,8.88
2023-04-01T22:29:19.808Z,8.55
2023-04-01T22:32:01.311Z,9.10
2023-04-01T22:34:46.606Z,9.23
2023-04-01T22:37:42.104Z,9.20
2023-04-01T22:40:24.962Z,8.60
2023-04-01T22:45:45.403Z,9.80
2023-04-01T22:48:23.150Z,9.07
2023-04-01T22:51:14.187Z,10.30
2023-04-01T22:53:59.147Z,10.73
2023-04-01T22:56:36.108Z,10.82
2023-04-01T22:59:24.793Z,9.43
2023-04-01T23:02:39.294Z,9.75
2023-04-01T23:05:14.274Z,8.77
2023-04-01T23:07:57.677Z,9.52
2023-04-01T23:10:32.123Z,11.77
2023-04-01T23:13:03.641Z,10.90
2023-04-01T23:15:34.629Z,10.35
2023-04-01T23:18:35.287Z,11.50
2023-04-01T23:21:20.024Z,8.32
2023-04-01T23:24:17.981Z,11.15
2023-04-01T23:27:02.800Z,9.88
2023-04-01T23:29:31.430Z,10.00
2023-04-01T23:32:05.220Z,12.48
2023-04-01T23:34:36.153Z,11.27
2023-04-01T23:37:17.449Z,11.55
2023-04-01T23:39:51.757Z,10.85
2023-04-01T23:42:24.756Z,10.25
2023-04-01T23:44:58.336Z,9.13
2023-04-01T23:47:39.285Z,8.98
2023-04-01T23:50:19.330Z,10.63
2023-04-01T23:53:00.642Z,12.02
2023-04-01T23:55:43.210Z,11.35
2023-04-01T23:58:16.610Z,10.18
